Time;durP1;ratioP1;P1;durP2;ratioP2;P2;SDS_P1;SDS_P2;PMS_P1;PMS_P2;Temp;Humidity;BMP_temperature;BMP_pressure;BME280_temperature;BME280_humidity;BME280_pressure;Samples;Min_cycle;Max_cycle;Signal;HPM_P1;HPM_P2
2023/08/21 00:01:58;;;;;;;14.27;9.23;;;;;;;28.93;70.78;100729.34;4912446;28;70344;-35
2023/08/21 00:04:28;;;;;;;16.75;9.52;;;;;;;28.96;71.90;100737.03;4913370;28;66370;-36
2023/08/21 00:06:58;;;;;;;15.20;9.75;;;;;;;28.96;72.50;100733.50;4908385;28;68893;-37
2023/08/21 00:09:28;;;;;;;17.08;10.18;;;;;;;29.04;72.24;100745.97;4904395;28;65719;-36
2023/08/21 00:11:59;;;;;;;13.43;9.60;;;;;;;29.08;73.08;100741.81;4903137;28;69522;-36
2023/08/21 00:14:29;;;;;;;12.80;9.05;;;;;;;28.96;73.20;100722.69;4907752;28;65899;-35
2023/08/21 00:16:59;;;;;;;13.45;9.30;;;;;;;29.17;72.44;100754.06;4905588;28;70059;-35
2023/08/21 00:19:30;;;;;;;15.05;9.00;;;;;;;29.18;74.16;100753.00;4907778;28;65992;-37
2023/08/21 00:22:01;;;;;;;13.32;8.73;;;;;;;29.23;72.41;100750.50;4909209;28;70233;-38
2023/08/21 00:24:31;;;;;;;13.75;9.55;;;;;;;29.19;72.86;100760.06;4916320;28;66298;-36
2023/08/21 00:27:03;;;;;;;11.95;8.95;;;;;;;29.02;73.13;100731.81;4903963;28;70008;-37
2023/08/21 00:29:33;;;;;;;11.77;8.48;;;;;;;29.32;73.50;100776.25;4892572;28;65185;-36
2023/08/21 00:32:03;;;;;;;12.20;8.73;;;;;;;29.27;74.51;100784.16;4912178;28;69365;-37
2023/08/21 00:34:35;;;;;;;11.87;7.90;;;;;;;29.35;73.70;100792.03;4889989;28;66148;-36
2023/08/21 00:37:05;;;;;;;14.68;8.32;;;;;;;29.35;74.14;100785.78;4907193;28;69883;-36
2023/08/21 00:39:35;;;;;;;10.60;8.23;;;;;;;29.43;73.36;100798.25;4908382;28;66517;-36
2023/08/21 00:42:07;;;;;;;13.95;7.18;;;;;;;29.45;73.73;100788.03;4911393;28;67689;-37
2023/08/21 00:44:37;;;;;;;9.00;7.65;;;;;;;29.48;73.36;100796.56;4891121;28;66488;-37
2023/08/21 00:47:07;;;;;;;11.48;6.70;;;;;;;29.53;73.45;100799.47;4911381;28;70360;-37
2023/08/21 00:49:39;;;;;;;10.55;7.30;;;;;;;29.53;73.59;100820.25;4891321;28;66069;-37
2023/08/21 00:52:14;;;;;;;7.65;6.85;;;;;;;29.16;71.21;100749.69;4906453;28;69933;-38
2023/08/21 00:54:45;;;;;;;9.23;5.93;;;;;;;29.50;70.60;100804.44;4904911;28;66758;-37
2023/08/21 00:57:15;;;;;;;6.53;5.80;;;;;;;29.54;70.69;100816.50;4915008;28;69255;-38
2023/08/21 00:59:45;;;;;;;6.88;6.25;;;;;;;29.55;70.24;100812.75;4911675;28;66687;-38
2023/08/21 01:02:17;;;;;;;8.10;5.60;;;;;;;29.51;69.81;100804.25;4895892;28;71600;-37
2023/08/21 01:04:47;;;;;;;7.93;6.18;;;;;;;29.56;69.45;100817.09;4906644;28;65176;-38
2023/08/21 01:07:18;;;;;;;6.93;5.53;;;;;;;29.61;69.29;100812.75;4914044;28;70540;-38
2023/08/21 01:10:26;;;;;;;5.88;5.28;;;;;;;29.68;69.15;100826.25;4912803;28;66308;-38
2023/08/21 01:13:09;;;;;;;8.35;5.13;;;;;;;29.24;70.29;100765.66;4876479;29;69661;-39
2023/08/21 01:15:40;;;;;;;8.70;5.55;;;;;;;29.71;68.73;100842.06;4896148;28;66307;-38
2023/08/21 01:18:11;;;;;;;6.10;5.60;;;;;;;29.74;68.47;100828.09;4910871;28;69531;-38
2023/08/21 01:20:41;;;;;;;5.60;5.07;;;;;;;29.74;68.94;100840.78;4917640;28;66496;-39
2023/08/21 01:23:32;;;;;;;6.25;5.63;;;;;;;29.72;69.03;100851.81;4921567;28;70345;-38
2023/08/21 01:26:03;;;;;;;5.95;5.45;;;;;;;29.75;68.06;100851.38;4909955;28;66973;-39
2023/08/21 01:28:35;;;;;;;5.55;5.05;;;;;;;29.73;68.35;100848.09;4920573;28;69446;-38
2023/08/21 01:31:15;;;;;;;6.47;5.35;;;;;;;29.47;67.79;100804.88;4903881;28;67363;-39
2023/08/21 01:33:51;;;;;;;6.80;4.78;;;;;;;29.60;68.09;100823.75;4919466;28;70067;-38
2023/08/21 01:36:21;;;;;;;6.68;5.30;;;;;;;29.82;67.58;100863.00;4919010;28;66151;-39
2023/08/21 01:38:52;;;;;;;5.72;5.22;;;;;;;29.94;67.35;100876.69;4921694;28;70365;-38
2023/08/21 01:41:25;;;;;;;6.20;5.30;;;;;;;30.00;67.32;100875.00;4909829;28;66338;-39
2023/08/21 01:43:55;;;;;;;5.47;4.97;;;;;;;29.99;67.37;100874.19;4917508;28;69678;-38
2023/08/21 01:46:25;;;;;;;4.60;4.25;;;;;;;30.00;66.87;100864.19;4921024;28;66838;-39
2023/08/21 01:48:56;;;;;;;5.72;5.22;;;;;;;30.05;67.16;100877.91;4921175;28;70239;-41
2023/08/21 01:51:26;;;;;;;5.75;4.97;;;;;;;30.07;66.51;100873.13;4907292;28;66325;-40
2023/08/21 01:53:57;;;;;;;5.10;4.60;;;;;;;30.10;66.83;100883.50;4912993;28;70069;-37
2023/08/21 01:56:27;;;;;;;4.93;4.53;;;;;;;30.12;66.60;100877.88;4903454;28;66255;-38
2023/08/21 01:58:57;;;;;;;5.00;4.50;;;;;;;30.08;66.47;100861.25;4902152;28;70200;-37
2023/08/21 02:02:05;;;;;;;4.47;4.07;;;;;;;30.16;66.94;100868.28;4913662;28;66708;-38
2023/08/21 02:04:35;;;;;;;6.85;4.35;;;;;;;30.09;66.96;100843.97;4892123;28;69363;-38
2023/08/21 02:07:05;;;;;;;4.80;4.40;;;;;;;30.21;66.67;100863.88;4901410;28;65880;-38
2023/08/21 02:09:35;;;;;;;5.03;3.83;;;;;;;30.24;66.79;100863.47;4887823;28;69527;-38
2023/08/21 02:12:14;;;;;;;4.03;3.72;;;;;;;30.27;66.63;100871.16;4906871;28;65859;-38
2023/08/21 02:18:36;;;;;;;4.03;3.70;;;;;;;30.33;66.83;100865.94;4903827;28;65423;-40
2023/08/21 02:21:08;;;;;;;5.00;4.07;;;;;;;30.33;66.21;100868.66;4901145;28;69483;-38
2023/08/21 02:26:46;;;;;;;4.07;3.78;;;;;;;30.41;65.95;100855.69;4835774;29;69478;-39
2023/08/21 02:44:53;;;;;;;3.90;3.60;;;;;;;30.59;65.94;100841.41;4771698;29;70308;-39
2023/08/21 02:47:42;;;;;;;4.45;4.05;;;;;;;30.19;65.59;100771.28;4756270;29;66351;-37
2023/08/21 02:50:30;;;;;;;4.55;4.15;;;;;;;30.64;65.36;100838.84;4762601;29;69799;-38
2023/08/21 02:53:17;;;;;;;4.18;3.88;;;;;;;30.61;65.58;100828.47;4770113;29;66233;-39
2023/08/21 02:56:18;;;;;;;;;;;;;;;30.43;66.69;100828.41;4777600;29;70496;-39
2023/08/21 02:59:17;;;;;;;4.60;4.20;;;;;;;30.64;66.00;100827.19;4767281;29;67064;-39
2023/08/21 03:02:01;;;;;;;6.85;4.18;;;;;;;30.66;65.55;100808.88;4782147;29;70581;-38
2023/08/21 03:04:31;;;;;;;6.38;4.15;;;;;;;30.77;65.87;100815.44;4856775;29;67436;-39
2023/08/21 03:07:02;;;;;;;5.13;4.47;;;;;;;30.78;65.43;100811.69;4893020;28;70318;-38
2023/08/21 03:09:32;;;;;;;9.30;4.50;;;;;;;30.80;65.32;100812.31;4918052;28;66298;-38
2023/08/21 03:12:03;;;;;;;4.88;4.47;;;;;;;30.83;65.36;100806.47;4918976;28;69995;-38
2023/08/21 03:14:35;;;;;;;5.32;4.78;;;;;;;30.86;65.55;100803.31;4913165;28;66224;-38
2023/08/21 03:17:05;;;;;;;4.20;3.90;;;;;;;30.88;65.44;100804.75;4915301;28;70336;-38
2023/08/21 03:19:36;;;;;;;5.07;4.55;;;;;;;30.84;65.12;100792.72;4920428;28;65596;-37
2023/08/21 03:22:06;;;;;;;4.90;4.13;;;;;;;30.92;65.27;100797.00;4884586;29;70227;-38
2023/08/21 03:24:36;;;;;;;4.80;4.03;;;;;;;30.95;65.26;100799.25;4903823;28;66983;-37
2023/08/21 03:27:07;;;;;;;6.75;4.10;;;;;;;30.96;65.31;100798.22;4911008;28;70341;-39
2023/08/21 03:29:37;;;;;;;4.97;4.28;;;;;;;30.99;65.00;100797.78;4910786;28;66082;-40
2023/08/21 03:32:07;;;;;;;9.48;4.13;;;;;;;31.01;65.01;100790.25;4909713;28;70227;-38
2023/08/21 03:34:38;;;;;;;5.37;4.20;;;;;;;31.02;65.17;100781.06;4907107;28;65241;-38
2023/08/21 03:37:09;;;;;;;6.40;3.85;;;;;;;31.04;64.80;100778.97;4902822;28;71006;-38
2023/08/21 03:39:39;;;;;;;6.50;4.05;;;;;;;31.04;65.23;100781.69;4913208;28;67434;-38
2023/08/21 03:42:12;;;;;;;4.90;4.28;;;;;;;31.08;64.70;100780.16;4898591;28;69189;-39
2023/08/21 03:44:42;;;;;;;8.15;4.03;;;;;;;31.09;65.40;100776.44;4915721;28;66009;-38
2023/08/21 03:47:13;;;;;;;6.93;4.22;;;;;;;31.11;64.99;100785.13;4911739;28;71032;-39
2023/08/21 03:49:51;;;;;;;4.78;4.18;;;;;;;31.10;65.01;100774.53;4915669;28;65826;-39
2023/08/21 03:52:24;;;;;;;4.78;4.28;;;;;;;31.15;64.71;100772.81;4895297;28;70567;-39
2023/08/21 03:54:55;;;;;;;4.68;4.28;;;;;;;31.16;64.69;100770.94;4912337;28;65472;-38
2023/08/21 03:57:25;;;;;;;5.22;4.03;;;;;;;31.16;64.59;100765.50;4900279;28;70248;-39
2023/08/21 03:59:55;;;;;;;5.47;3.38;;;;;;;31.20;64.67;100768.59;4909872;28;66125;-37
2023/08/21 04:02:26;;;;;;;4.20;3.80;;;;;;;31.21;64.86;100767.56;4895613;28;70366;-39
2023/08/21 04:04:57;;;;;;;4.93;4.53;;;;;;;31.14;64.72;100756.78;4890403;28;65118;-40
2023/08/21 04:07:27;;;;;;;4.40;3.60;;;;;;;31.27;64.33;100778.31;4898945;28;69581;-48
2023/08/21 04:10:00;;;;;;;4.22;3.83;;;;;;;31.28;64.53;100773.72;4897098;28;43114;-38
2023/08/21 04:12:30;;;;;;;5.13;4.28;;;;;;;31.23;64.75;100758.16;4910002;28;69965;-39
2023/08/21 04:15:00;;;;;;;4.00;3.60;;;;;;;31.34;64.62;100778.22;4912731;28;65778;-39
2023/08/21 04:17:32;;;;;;;6.43;3.90;;;;;;;31.31;64.20;100767.84;4908025;28;69092;-39
2023/08/21 04:20:02;;;;;;;4.70;3.50;;;;;;;31.34;64.37;100767.38;4909347;28;65263;-38
2023/08/21 04:22:32;;;;;;;4.78;4.30;;;;;;;31.34;64.16;100756.53;4910939;28;69847;-38
2023/08/21 04:25:02;;;;;;;4.53;4.07;;;;;;;31.42;64.08;100769.00;4918239;28;66535;-39
2023/08/21 04:27:33;;;;;;;4.63;4.20;;;;;;;31.23;64.21;100722.06;4911198;28;69511;-38
2023/08/21 04:30:04;;;;;;;11.38;4.22;;;;;;;31.45;63.92;100757.69;4919408;28;65785;-39
2023/08/21 04:32:35;;;;;;;6.88;4.15;;;;;;;31.46;64.02;100754.78;4914111;28;69957;-38
2023/08/21 04:35:08;;;;;;;4.65;4.25;;;;;;;31.47;64.18;100751.00;4919359;28;65400;-42
2023/08/21 04:37:44;;;;;;;4.72;4.00;;;;;;;31.14;64.08;100691.75;4916294;28;69858;-39
2023/08/21 04:40:17;;;;;;;5.75;3.88;;;;;;;31.53;64.15;100754.69;4904210;28;66428;-39
2023/08/21 04:42:48;;;;;;;4.28;3.85;;;;;;;31.55;63.90;100747.16;4906186;28;70585;-39
2023/08/21 04:45:18;;;;;;;4.25;3.83;;;;;;;31.57;63.82;100745.88;4891764;28;66081;-39
2023/08/21 04:47:49;;;;;;;4.53;4.10;;;;;;;31.59;64.14;100753.75;4913785;28;70457;-40
2023/08/21 04:50:19;;;;;;;4.70;4.20;;;;;;;31.61;63.72;100743.53;4907483;28;65882;-39
2023/08/21 04:52:50;;;;;;;;;;;;;;;31.37;64.38;100729.00;4897129;28;70263;-38
2023/08/21 04:55:40;;;;;;;4.22;3.60;;;;;;;31.56;63.94;100717.09;4901344;28;66654;-39
2023/08/21 04:58:10;;;;;;;5.20;4.07;;;;;;;31.53;63.69;100700.47;4892971;28;69234;-39
2023/08/21 05:00:41;;;;;;;5.22;3.95;;;;;;;31.66;63.87;100715.72;4895480;28;66331;-40
2023/08/21 05:03:12;;;;;;;5.13;3.83;;;;;;;31.59;63.69;100700.38;4918143;28;70541;-39
2023/08/21 05:05:55;;;;;;;4.63;3.78;;;;;;;31.60;63.51;100685.75;4922441;28;65693;-40
2023/08/21 05:08:26;;;;;;;4.10;3.70;;;;;;;31.74;63.61;100693.72;4903315;29;70777;-39
2023/08/21 05:11:00;;;;;;;4.07;3.67;;;;;;;31.75;63.44;100698.88;4921507;28;65851;-39
2023/08/21 05:13:34;;;;;;;4.85;3.85;;;;;;;31.76;63.96;100691.56;4908089;28;69986;-39
2023/08/21 05:16:04;;;;;;;4.43;4.03;;;;;;;31.81;63.66;100697.13;4905606;28;65404;-39
2023/08/21 05:18:38;;;;;;;4.93;4.43;;;;;;;31.81;63.46;100683.56;4893822;28;70288;-46
2023/08/21 05:21:08;;;;;;;7.28;3.72;;;;;;;31.81;63.64;100680.88;4903548;28;65332;-41
2023/08/21 05:23:38;;;;;;;5.10;4.00;;;;;;;31.86;63.03;100682.91;4919096;28;70293;-38
2023/08/21 05:26:11;;;;;;;7.35;3.90;;;;;;;31.87;63.24;100679.94;4922699;28;66465;-39
2023/08/21 05:28:41;;;;;;;9.20;4.07;;;;;;;31.87;63.15;100674.50;4915556;28;70677;-39
2023/08/21 05:31:11;;;;;;;6.40;3.88;;;;;;;31.91;63.33;100680.31;4918563;28;66559;-39
2023/08/21 05:33:50;;;;;;;4.97;3.85;;;;;;;31.91;63.24;100664.91;4937064;28;70235;-39
2023/08/21 05:36:21;;;;;;;5.57;3.63;;;;;;;31.93;63.03;100662.78;4907603;28;65986;-39
2023/08/21 05:38:52;;;;;;;5.85;4.20;;;;;;;31.91;63.32;100664.91;4895022;28;71542;-39
2023/08/21 05:41:28;;;;;;;4.35;3.80;;;;;;;31.93;63.16;100653.78;4898438;28;66263;-40
2023/08/21 05:43:58;;;;;;;5.68;3.70;;;;;;;32.02;62.95;100655.13;4902903;28;69925;-39
2023/08/21 05:46:29;;;;;;;5.07;3.55;;;;;;;32.02;62.98;100655.94;4918682;28;66729;-39
2023/08/21 05:48:59;;;;;;;5.82;3.88;;;;;;;31.93;62.93;100623.94;4912721;28;70470;-39
2023/08/21 05:51:31;;;;;;;3.70;3.30;;;;;;;32.02;62.78;100628.81;4896945;28;65942;-39
2023/08/21 05:54:01;;;;;;;4.78;3.50;;;;;;;32.00;62.81;100609.22;4917608;28;70621;-39
2023/08/21 05:56:32;;;;;;;3.45;3.15;;;;;;;32.12;62.78;100616.53;4909705;28;66707;-39
2023/08/21 05:59:02;;;;;;;6.38;3.58;;;;;;;32.14;62.98;100620.69;4924684;28;70248;-39
2023/08/21 06:01:32;;;;;;;4.45;3.90;;;;;;;32.16;62.79;100628.59;4921338;28;66041;-39
2023/08/21 06:04:03;;;;;;;5.15;3.70;;;;;;;32.12;62.80;100605.69;4896367;28;70136;-39
2023/08/21 06:06:53;;;;;;;4.30;3.90;;;;;;;32.21;62.64;100620.59;4893283;28;66347;-39
2023/08/21 06:09:26;;;;;;;4.05;3.63;;;;;;;32.19;62.72;100617.28;4922299;28;70569;-38
2023/08/21 06:11:56;;;;;;;5.65;3.50;;;;;;;32.25;62.56;100617.16;4913436;28;66499;-40
2023/08/21 06:14:28;;;;;;;3.83;3.08;;;;;;;32.27;62.54;100615.03;4909161;28;68488;-38
2023/08/21 06:17:03;;;;;;;3.97;3.28;;;;;;;32.31;62.24;100604.50;4921623;28;66382;-39
2023/08/21 06:19:33;;;;;;;4.40;3.22;;;;;;;32.32;62.41;100606.19;4899819;28;69859;-39
2023/08/21 06:22:06;;;;;;;3.95;3.40;;;;;;;32.34;62.11;100597.78;4891504;28;66802;-38
2023/08/21 06:24:36;;;;;;;5.78;3.72;;;;;;;32.37;62.17;100609.00;4892400;28;70381;-38
2023/08/21 06:27:10;;;;;;;4.60;3.55;;;;;;;32.39;61.97;100603.34;4907128;28;66808;-38
2023/08/21 06:29:40;;;;;;;5.78;4.00;;;;;;;32.42;62.29;100605.56;4896409;28;70071;-40
2023/08/21 06:32:11;;;;;;;4.43;4.03;;;;;;;32.44;62.31;100598.84;4904438;28;65929;-39
2023/08/21 06:34:53;;;;;;;4.00;3.22;;;;;;;32.40;62.04;100592.25;4896091;28;70475;-40
2023/08/21 06:37:24;;;;;;;4.43;3.67;;;;;;;32.19;62.25;100547.53;4900294;28;66475;-39
2023/08/21 06:39:59;;;;;;;5.00;4.30;;;;;;;32.46;62.31;100585.91;4905811;28;68692;-39
2023/08/21 06:42:30;;;;;;;6.65;4.13;;;;;;;32.50;62.19;100572.66;4899010;28;65233;-39
2023/08/21 06:45:01;;;;;;;4.60;4.15;;;;;;;32.50;62.37;100564.53;4919289;28;69848;-39
2023/08/21 06:47:32;;;;;;;6.40;4.15;;;;;;;32.47;62.42;100565.81;4919205;28;65941;-39
2023/08/21 06:50:03;;;;;;;4.57;4.10;;;;;;;32.49;62.15;100563.69;4905703;28;70751;-39
2023/08/21 06:52:35;;;;;;;8.45;3.88;;;;;;;32.53;62.52;100557.78;4920059;28;65652;-38
2023/08/21 06:55:06;;;;;;;;;;;;;;;32.38;62.60;100561.81;4920221;28;70028;-40
2023/08/21 06:57:37;;;;;;;3.90;3.50;;;;;;;32.62;62.08;100561.78;4919879;28;67098;-38
2023/08/21 07:00:08;;;;;;;4.35;3.33;;;;;;;32.67;61.78;100551.84;4899798;28;68941;-39
2023/08/21 07:02:38;;;;;;;3.60;3.10;;;;;;;32.69;61.98;100538.03;4921180;28;66405;-40
2023/08/21 07:05:09;;;;;;;3.75;3.45;;;;;;;32.73;61.96;100536.47;4914547;28;70282;-39
2023/08/21 07:07:40;;;;;;;;;;;;;;;32.56;62.23;100535.59;4923369;28;66219;-39
2023/08/21 07:10:10;;;;;;;4.82;3.88;;;;;;;32.78;61.93;100523.00;4902057;28;70066;-37
2023/08/21 07:12:40;;;;;;;4.00;3.60;;;;;;;32.82;61.86;100518.75;4906243;28;66011;-39
2023/08/21 07:15:11;;;;;;;3.90;3.60;;;;;;;32.89;61.90;100524.84;4918590;28;69997;-40
2023/08/21 07:17:41;;;;;;;3.88;3.58;;;;;;;32.87;61.84;100510.66;4920730;28;66842;-41
2023/08/21 07:20:12;;;;;;;4.68;3.25;;;;;;;32.92;61.63;100518.91;4920517;28;69543;-39
2023/08/21 07:22:42;;;;;;;4.07;3.45;;;;;;;32.93;61.68;100503.44;4920578;28;66048;-39
2023/08/21 07:25:12;;;;;;;3.72;3.42;;;;;;;32.97;61.46;100503.78;4922748;28;69487;-40
2023/08/21 07:27:47;;;;;;;4.15;3.60;;;;;;;32.99;61.62;100502.50;4905330;28;66528;-39
2023/08/21 07:30:33;;;;;;;3.95;3.60;;;;;;;32.98;61.27;100487.22;4913094;28;70240;-38
2023/08/21 07:33:05;;;;;;;4.47;3.33;;;;;;;32.99;61.40;100490.75;4915802;28;66119;-39
2023/08/21 07:35:56;;;;;;;5.00;3.33;;;;;;;33.08;61.19;100505.66;4923226;28;71404;-40
2023/08/21 07:38:28;;;;;;;3.47;3.17;;;;;;;33.04;61.34;100499.03;4900309;28;66310;-39
2023/08/21 07:41:12;;;;;;;5.35;3.60;;;;;;;32.75;60.78;100447.44;4920533;28;70453;-39
2023/08/21 07:43:44;;;;;;;8.23;3.80;;;;;;;33.18;61.34;100513.97;4915220;28;66197;-39
2023/08/21 07:46:18;;;;;;;4.00;3.53;;;;;;;33.15;60.70;100506.31;4918227;28;70537;-40
2023/08/21 07:48:49;;;;;;;3.70;3.28;;;;;;;33.20;60.97;100509.13;4912466;28;65705;-38
2023/08/21 07:51:20;;;;;;;3.60;3.25;;;;;;;33.22;60.79;100506.19;4921261;28;69405;-39
2023/08/21 07:53:55;;;;;;;8.07;3.85;;;;;;;33.15;60.99;100490.00;4929383;28;65720;-40
2023/08/21 07:56:29;;;;;;;4.18;3.00;;;;;;;33.26;60.70;100505.41;4895308;28;72485;-40
2023/08/21 07:59:01;;;;;;;;;;;;;;;33.07;61.10;100514.84;4929631;28;66382;-40
2023/08/21 08:01:32;;;;;;;6.30;3.08;;;;;;;33.25;60.83;100522.81;4912813;28;69781;-39
2023/08/21 08:04:03;;;;;;;3.95;3.53;;;;;;;33.26;60.77;100524.44;4927102;28;65579;-39
2023/08/21 08:06:33;;;;;;;4.00;3.60;;;;;;;33.23;60.69;100519.50;4916994;28;70462;-40
2023/08/21 08:09:03;;;;;;;4.68;3.30;;;;;;;33.33;60.71;100536.00;4930327;28;66486;-39
2023/08/21 08:11:34;;;;;;;3.53;3.22;;;;;;;33.35;60.76;100533.88;4913798;28;69930;-39
2023/08/21 08:14:04;;;;;;;3.65;3.35;;;;;;;33.34;60.53;100518.59;4918364;28;66092;-40
2023/08/21 08:16:34;;;;;;;4.15;3.47;;;;;;;33.31;60.67;100510.94;4912580;28;69521;-40
2023/08/21 08:19:04;;;;;;;4.38;3.45;;;;;;;33.36;60.74;100521.91;4918944;28;66579;-40
2023/08/21 08:21:35;;;;;;;4.22;3.75;;;;;;;33.36;61.06;100502.88;4926695;28;70116;-42
2023/08/21 08:24:06;;;;;;;4.53;4.13;;;;;;;33.32;61.08;100490.03;4919729;28;66530;-40
2023/08/21 08:26:36;;;;;;;5.30;4.07;;;;;;;33.34;60.81;100491.44;4919629;28;69583;-40
2023/08/21 08:29:06;;;;;;;3.67;3.30;;;;;;;33.37;61.04;100481.94;4920741;28;66451;-41
2023/08/21 08:31:38;;;;;;;5.35;4.38;;;;;;;33.34;60.88;100499.59;4921922;28;70565;-40
2023/08/21 08:34:09;;;;;;;4.68;3.95;;;;;;;33.36;61.16;100516.47;4923634;28;66729;-40
2023/08/21 08:36:41;;;;;;;4.38;3.17;;;;;;;33.36;61.36;100530.06;4923351;28;70539;-40
2023/08/21 08:39:11;;;;;;;9.52;3.72;;;;;;;33.35;61.18;100531.16;4917820;28;66604;-40
2023/08/21 08:41:51;;;;;;;3.78;3.40;;;;;;;33.19;60.66;100503.94;4911548;28;70384;-39
2023/08/21 08:44:26;;;;;;;4.07;3.63;;;;;;;33.26;60.93;100508.13;4916176;28;66483;-40
2023/08/21 08:46:57;;;;;;;4.35;3.95;;;;;;;33.05;60.94;100465.41;4906124;28;70064;-40
2023/08/21 08:49:29;;;;;;;3.90;3.53;;;;;;;33.34;61.41;100515.88;4915991;28;66752;-41
2023/08/21 08:52:00;;;;;;;4.13;3.83;;;;;;;33.27;61.24;100503.56;4905407;28;69974;-41
2023/08/21 08:54:33;;;;;;;3.50;3.30;;;;;;;33.33;61.36;100503.38;4923399;28;65928;-39
2023/08/21 08:57:03;;;;;;;4.60;3.67;;;;;;;33.30;61.00;100503.88;4920167;28;70056;-39
2023/08/21 08:59:34;;;;;;;;;;;;;;;33.11;61.51;100511.41;4929626;28;66340;-40
2023/08/21 09:02:04;;;;;;;3.35;3.05;;;;;;;33.29;61.46;100518.56;4923461;28;70550;-39
2023/08/21 09:04:34;;;;;;;5.43;3.90;;;;;;;33.30;61.55;100525.63;4920422;28;66689;-40
2023/08/21 09:07:12;;;;;;;5.97;4.05;;;;;;;33.25;61.47;100511.94;4922033;28;69741;-39
2023/08/21 09:09:47;;;;;;;3.72;3.38;;;;;;;32.95;61.04;100452.41;4923811;28;66204;-40
2023/08/21 09:12:17;;;;;;;4.22;3.53;;;;;;;33.24;61.46;100504.88;4918967;28;70222;-40
2023/08/21 09:14:48;;;;;;;4.20;3.90;;;;;;;33.23;61.36;100500.47;4924215;28;66599;-40
2023/08/21 09:17:18;;;;;;;5.57;3.70;;;;;;;33.24;61.19;100504.00;4905986;28;69980;-40
2023/08/21 09:19:48;;;;;;;3.65;3.33;;;;;;;33.23;61.48;100507.81;4922682;28;66379;-40
2023/08/21 09:22:19;;;;;;;3.63;3.33;;;;;;;33.18;61.47;100497.66;4924294;28;69671;-39
2023/08/21 09:25:10;;;;;;;4.55;3.63;;;;;;;32.81;61.25;100453.78;4924585;28;66649;-39
2023/08/21 09:27:40;;;;;;;4.38;4.00;;;;;;;33.11;61.74;100505.16;4925291;28;70213;-39
2023/08/21 09:30:16;;;;;;;5.03;3.92;;;;;;;33.13;61.43;100513.91;4921405;28;65737;-40
2023/08/21 09:32:57;;;;;;;5.10;4.00;;;;;;;32.78;61.39;100471.38;4915885;28;68711;-41
2023/08/21 09:35:28;;;;;;;5.78;3.88;;;;;;;33.13;61.74;100530.22;4904041;28;66285;-40
2023/08/21 09:37:59;;;;;;;5.68;4.15;;;;;;;33.04;62.04;100526.22;4909041;28;70460;-40
2023/08/21 09:40:29;;;;;;;5.87;4.13;;;;;;;33.11;62.09;100532.34;4910577;28;66651;-40
2023/08/21 09:42:59;;;;;;;4.50;3.83;;;;;;;33.06;61.85;100524.09;4914147;28;70284;-40
2023/08/21 09:45:29;;;;;;;5.18;4.32;;;;;;;33.04;61.71;100531.66;4911642;28;66741;-40
2023/08/21 09:48:00;;;;;;;5.30;4.43;;;;;;;33.00;62.04;100519.63;4912481;28;69133;-39
2023/08/21 09:50:31;;;;;;;8.35;4.50;;;;;;;32.97;61.76;100520.09;4917503;28;66076;-40
2023/08/21 09:53:02;;;;;;;7.20;4.30;;;;;;;33.05;62.28;100523.28;4894826;28;69341;-40
2023/08/21 09:55:55;;;;;;;5.05;4.53;;;;;;;32.99;61.96;100515.22;4911806;28;66512;-40
2023/08/21 09:58:25;;;;;;;4.75;3.95;;;;;;;32.96;61.97;100523.88;4916420;28;70043;-38
2023/08/21 10:01:00;;;;;;;6.43;4.47;;;;;;;32.90;62.18;100525.66;4915007;28;66440;-38
2023/08/21 10:03:32;;;;;;;7.70;4.20;;;;;;;32.93;62.42;100553.19;4911222;28;69773;-38
2023/08/21 10:06:03;;;;;;;7.85;4.68;;;;;;;32.99;63.01;100566.84;4913531;28;65336;-38
2023/08/21 10:08:39;;;;;;;5.97;5.47;;;;;;;32.62;63.07;100529.19;4917149;28;70216;-39
2023/08/21 10:11:10;;;;;;;8.05;5.53;;;;;;;32.95;62.80;100588.25;4894628;28;66628;-38
2023/08/21 10:13:41;;;;;;;12.02;5.82;;;;;;;32.94;63.46;100589.34;4918352;28;70046;-37
2023/08/21 10:16:12;;;;;;;8.32;5.55;;;;;;;32.95;63.42;100593.69;4893217;28;66134;-38
2023/08/21 10:18:45;;;;;;;7.00;6.30;;;;;;;32.87;63.78;100584.00;4916406;28;69223;-39
2023/08/21 10:21:21;;;;;;;6.82;5.97;;;;;;;32.61;63.86;100528.38;4911897;28;65597;-40
2023/08/21 10:23:55;;;;;;;6.78;6.03;;;;;;;32.55;63.80;100523.91;4910922;28;70200;-37
2023/08/21 10:26:26;;;;;;;12.55;6.05;;;;;;;32.85;64.07;100578.03;4912088;28;66210;-39
2023/08/21 10:29:06;;;;;;;7.82;6.15;;;;;;;32.88;64.00;100593.84;4912369;28;68864;-43
2023/08/21 10:31:38;;;;;;;13.95;6.68;;;;;;;32.85;64.29;100597.03;4895637;28;66782;-39
2023/08/21 10:34:13;;;;;;;9.63;6.72;;;;;;;32.87;64.79;100597.59;4912457;28;70092;-39
2023/08/21 10:36:43;;;;;;;8.57;6.63;;;;;;;32.84;64.46;100598.09;4916234;28;64035;-37
2023/08/21 10:39:23;;;;;;;13.70;7.27;;;;;;;32.77;64.73;100583.84;4911566;28;69449;-38
2023/08/21 10:42:04;;;;;;;7.70;6.75;;;;;;;32.20;64.50;100494.06;4898379;28;65473;-38
2023/08/21 10:45:00;;;;;;;8.45;7.25;;;;;;;32.72;65.26;100597.31;4914867;28;68088;-38
2023/08/21 10:47:31;;;;;;;17.02;7.30;;;;;;;32.77;65.59;100589.25;4917988;28;66319;-38
2023/08/21 10:50:07;;;;;;;15.57;8.55;;;;;;;32.43;66.16;100552.91;4908247;28;69060;-38
2023/08/21 10:52:44;;;;;;;15.02;9.25;;;;;;;32.34;66.67;100538.06;4916233;28;65813;-37
2023/08/21 10:55:18;;;;;;;17.52;10.73;;;;;;;32.61;67.76;100609.00;4912250;28;70482;-39
2023/08/21 10:57:49;;;;;;;15.95;10.55;;;;;;;32.56;69.09;100590.72;4913788;28;65874;-37
2023/08/21 11:00:20;;;;;;;16.45;10.65;;;;;;;32.46;69.10;100590.50;4912368;28;69729;-37
2023/08/21 11:02:53;;;;;;;15.88;9.15;;;;;;;32.43;69.26;100586.34;4912775;28;66797;-40
2023/08/21 11:05:24;;;;;;;14.13;8.70;;;;;;;32.39;69.30;100590.59;4901582;28;69110;-38
2023/08/21 11:07:54;;;;;;;14.77;9.20;;;;;;;32.38;70.25;100599.81;4910032;28;66241;-40
2023/08/21 11:10:24;;;;;;;13.35;9.57;;;;;;;32.39;70.51;100615.00;4916823;28;70895;-40
2023/08/21 11:12:57;;;;;;;17.43;9.33;;;;;;;32.38;71.06;100626.94;4904503;28;67118;-39
2023/08/21 11:15:29;;;;;;;15.68;10.13;;;;;;;32.01;70.71;100563.94;4915822;28;70934;-39
2023/08/21 11:18:03;;;;;;;15.25;8.88;;;;;;;31.73;71.00;100537.47;4903855;28;66615;-39
2023/08/21 11:20:35;;;;;;;15.73;9.32;;;;;;;32.12;71.15;100608.41;4916035;28;70336;-38
2023/08/21 11:23:07;;;;;;;15.52;9.10;;;;;;;32.33;71.30;100645.81;4930041;28;65895;-39
2023/08/21 11:25:40;;;;;;;9.52;8.57;;;;;;;32.31;71.41;100664.22;4915756;28;70382;-39
2023/08/21 11:28:11;;;;;;;12.20;9.00;;;;;;;32.22;71.38;100665.66;4917514;28;66462;-40
2023/08/21 11:30:43;;;;;;;10.43;9.07;;;;;;;31.67;71.41;100584.50;4920299;28;69904;-39
2023/08/21 11:33:14;;;;;;;13.07;8.88;;;;;;;32.31;71.24;100694.09;4926900;28;66108;-39
2023/08/21 11:35:45;;;;;;;12.82;8.95;;;;;;;32.23;71.92;100683.56;4892948;28;69688;-39
2023/08/21 11:38:20;;;;;;;10.90;9.20;;;;;;;32.18;71.69;100667.16;4918106;28;66491;-40
2023/08/21 11:41:02;;;;;;;9.63;8.68;;;;;;;31.78;71.89;100616.25;4905469;28;70385;-40
2023/08/21 11:43:35;;;;;;;9.82;8.75;;;;;;;32.25;71.58;100690.44;4906449;28;66264;-39
2023/08/21 11:46:07;;;;;;;15.23;8.70;;;;;;;32.24;72.19;100696.09;4905271;28;69340;-40
2023/08/21 11:48:38;;;;;;;9.57;8.65;;;;;;;32.21;71.94;100691.97;4920593;28;66925;-40
2023/08/21 11:51:09;;;;;;;11.82;8.93;;;;;;;32.15;72.00;100686.63;4921947;28;70132;-39
2023/08/21 11:53:41;;;;;;;14.95;9.10;;;;;;;32.22;72.25;100703.66;4915522;28;64866;-40
2023/08/21 11:56:17;;;;;;;10.05;9.05;;;;;;;31.91;72.28;100659.47;4911715;28;70043;-40
2023/08/21 11:58:51;;;;;;;13.95;9.32;;;;;;;32.17;72.41;100695.38;4914262;28;66980;-39
2023/08/21 12:01:22;;;;;;;12.05;9.73;;;;;;;32.20;72.12;100708.47;4914727;28;70256;-40
2023/08/21 12:03:56;;;;;;;11.60;9.82;;;;;;;32.12;72.86;100697.97;4911620;28;65564;-41
2023/08/21 12:06:32;;;;;;;11.93;10.55;;;;;;;32.19;72.87;100720.41;4918299;28;69962;-40
2023/08/21 12:09:04;;;;;;;11.50;10.18;;;;;;;32.19;73.17;100726.66;4914625;28;65567;-40
2023/08/21 12:11:35;;;;;;;10.88;9.63;;;;;;;32.20;73.30;100732.91;4915567;28;70276;-38
2023/08/21 12:14:06;;;;;;;14.73;10.48;;;;;;;32.18;73.48;100735.84;4911898;28;66349;-39